RAID DU MORNE PITAULT (15 km) le 12/10/2014

Recherche par Dossard : par Nom : par Club :

Place Dossard Nom Prenom Cat. Pl. Cat. Temps Club Sexe
1 1 TRAMMA Fred V2 1 01:17:51 GOLDEN STAR M
2 161 MALEAU Willy V1 1 01:21:14 LES BAROUDEURS M
3 8 RAMANICK Stelve SE 1 01:21:27 M
4 164 LE ROUX Eddy SE 2 01:21:41 M
5 2 THOMASI Joel V2 2 01:23:37 M
6 117 FAHY Fabrice V1 2 01:23:45 TCHIMBE RAID M
7 175 LACRAMPE Louis-Félix V2 3 01:24:34 MANIKOU ORGANISATIONS M
8 9 GOYON Nicolas SE 3 01:24:49 M
9 168 LUCAS Maurice V1 3 01:26:39 MANICOU M
10 22 SAUVAGNAC Xavier V1 4 01:27:00 TCHIMBE RAID M
11 211 PONCHATEAU Jean-Pierre V1 5 01:27:19 CLUB MANIKOU/ TEAM RAID MARTEAU M
12 221 CEPISUL Dez V2 4 01:27:43 PHOENIX M
13 186 LUCCIN Franck SE 4 01:27:43 US ROBERT M
14 151 GAUDE Jean-Marie SE 5 01:28:02 M
15 89 CACERES Sebastien SE 6 01:28:56 RSMAM M
16 126 ARMANET Félix ES 1 01:30:05 EMATRAIL M
17 36 DA SILVA Ludovic SE 7 01:30:38 DTA-33 M
18 245 SIBADO Albert V2 5 01:31:04 MANIKOU M
19 255 BELLEMARE Bruno V1 6 01:31:06 TCHIMBE RAID M
20 28 ROSIER Patrick V2 6 01:31:29 M
21 159 QUARTERON Lucien V2 7 01:31:41 GOLDEN START M
22 42 BARAULT Ludwig SE 8 01:32:01 MANIKOU M
23 167 BILL François V1 7 01:32:11 TCHIMBÉ RAID M
24 13 CHRISTINE Jean-Charles V1 8 01:32:52 COLONIAL M
25 232 PERNELLE David SE 9 01:33:28 M
26 235 COURANT Guy V3 1 01:33:29 MANIKOU ORGANISATIONS M
27 67 MARIE-ANGELIQUE Rodrigue Romuald V1 9 01:33:57 RAIDMARTEAU972 M
28 71 ANEXIME Alain V2 8 01:34:05 TCHIMBE RAID M
29 731 AURIN Guillaume SE 10 01:36:08 M
30 119 VERLHAC Anthony SE 11 01:36:29 M
31 250 MIRA Gaël SE 12 01:37:09 M
32 220 CAREL Jean-Claude V1 10 01:37:09 M
33 249 GUILBERT Yann V1 11 01:37:29 M
34 189 LANGLAIS Gwenaël SE 13 01:38:07 TCHIMBE RAID M
35 68 VADIUS Yannick SE 14 01:38:31 CLUB MANIKOU ORGANISATIONS M
36 177 VERRES Alexandre V2 9 01:38:35 M
37 128 REINE Rodrigue V2 10 01:39:08 TCHIMBE RAID LES BAROUDEURS M
38 77 ARMEDE Roddy SE 15 01:39:08 TCHIMBE RAID M
39 160 MALEAU Franck V1 12 01:39:22 LES BAROUDEURS M
40 5 ROUBLIQUE Elisabeth V1 1 01:39:48 F
41 174 NAGBO Jean SE 16 01:39:50 M
42 258 NERET Rony V1 13 01:39:53 TEAM TRAIL 4 DU CAP MACRÉ M
43 210 LEVEQUE Stanley SE 17 01:39:54 M
44 17 TESORIERE Nicolas SE 18 01:39:55 M
45 202 HOSPICE Jean-Pierre V1 14 01:40:02 TCHIMBE-R/SAM HORIZON2000 M
46 138 FORGARD Germain V1 15 01:41:19 M
47 80 BOURCH Francois SE 19 01:41:24 TCHIMBE RAID M
48 116 PILLE Nicolas SE 20 01:41:26 RSMA-M M
49 18 BOMPAS Grégory SE 21 01:41:42 TCHIMBE RAID M
50 100 GUSTAVE Gulliano SE 22 01:42:12 FR MORNE PITAULT M
51 163 DEROZE Maurille V1 16 01:42:29 M
52 182 OZIER-LAFONTAINE Michel V1 17 01:42:31 LES BAROUDEURS M
53 86 MONSTERLET Matthieu SE 23 01:42:31 RSMA MARTINIQUE M
54 149 CLEDELIN Hervé V1 18 01:42:34 BAROUDEUR M
55 90 BURVENIQUE Romain SE 24 01:42:43 M
56 46 TECHI André Théodore SE 25 01:43:36 TCHIMBE RAID M
57 48 BOYAVAL Jean-Philippe V1 19 01:43:40 TCHIMBE RAID M
58 106 HILLION Claude V1 20 01:45:05 TCHIMBE RAID M
59 132 OGER Niels SE 26 01:45:23 M
60 57 CHARLERY Rodolphe V1 21 01:45:28 M
61 39 MERIOT Stéphane V1 22 01:45:30 M
62 99 CAROUGE Patrice SE 27 01:45:52 TCHIMBE RAID M
63 72 SEONNET Stephane SE 28 01:45:59 M
64 216 ADENET Clara SE 1 01:46:07 MADININA BIKERS F
65 176 HUMBERT Pascal SE 29 01:46:15 M
66 6 EMONIDES Marie Chantal V1 2 01:46:28 TCHIMBE RAID F
67 53 EMONIDES Michel V1 23 01:47:28 TCHIMBE RAID M
68 195 ARRONDELL Olivier V1 24 01:47:32 M
69 92 BOUCHAUD Anthony V1 25 01:47:39 CSLG REDOUTE M
70 122 DELOR Jean-Francois SE 30 01:48:06 TCHIMBE RAID M
71 97 BOUGAMONT Laurent SE 31 01:48:09 RSMA MARTINIQUE M
72 120 GROS DESORMEAUX François SE 32 01:48:29 M
73 110 ROY-CAMILLE Henry-Michel SE 33 01:48:29 GOLDEN STAR M
74 169 MANIERE Florian SE 34 01:48:36 GOLDEN STAR M
75 178 ABADIE Alexis SE 35 01:48:36 M
76 181 FIBLEUIL Yvon V2 11 01:49:16 TCHIMBE RAID - L.S.E M
77 76 CRAMER Alain Mathieu V1 26 01:49:18 TEAM R M
78 147 BLONDEAU Patrick V2 12 01:49:20 TCHIMBE RAID M
79 26 HINCHET Fabien SE 36 01:49:20 M
80 137 DEROZE Eddy V1 27 01:49:23 ÉTOILE CYCLISTE LAMENTINOISE M
81 88 MAUSSION ÉP COUFLEAU Eloďse SE 2 01:49:27 RSMAM F
82 59 MELKI Emile SE 37 01:49:27 M
83 93 COUFLEAU Matthieu SE 38 01:49:29 M
84 213 MEHAL Lionel V1 28 01:49:42 ASC.POLICE M
85 224 DORWLING-CARTER Laurent V2 13 01:49:44 M
86 234 THEODOSE Frantz V2 14 01:49:52 FRMP M
87 193 CADRAN Rose-Aimée V2 1 01:50:24 US RIS ORANGIS F
88 172 RECORBET Fabrice V1 29 01:50:30 M
89 170 BOULOT Benoit V1 30 01:51:00 PASS RUNNIG M
90 209 RONOT RODOLPHE SE 39 01:52:28 M
91 4 LEVY Gabriel V3 2 01:53:15 GOLDEN STAR M
92 35 LE MASSON Franck V1 31 01:53:18 TCHIMBE RAID M
93 125 BELLIER Denis SE 40 01:53:18 TCHIMBE RAID M
94 49 LERY Eddy V1 32 01:53:24 TCHIMBE RAID M
95 108 LE MENEZ Laurent V1 33 01:53:26 M
96 187 LUCCIN Olivier V1 34 01:54:20 M
97 154 HOCHEDEZ Patrick V1 35 01:54:44 GOLDEN STAR M
98 153 ACHARD Raphaël V1 36 01:54:52 TCHIMBE RAID M
99 101 BERTE David V1 37 01:55:31 SAMHORIZON M
100 7 NEHR Isabelle V1 3 01:55:40 TCHIMBE RAID F
101 198 CLEMENT Wilfrid V1 38 01:55:47 DIRISI TEAM M
102 10 SEYCHELLES Jean-Eudes SE 41 01:56:10 M
103 142 MOTTIN Clément SE 42 01:56:13 AIGLON ATHLÉTISME M
104 259 JEREMIE Tony SE 43 01:56:29 TCH RAID/SAM HORIZON 2000 M
105 200 SYLVESTRE Didier V1 39 01:57:13 TCHIMBE RAID M
106 115 GADENNE Matthieu ES 2 01:57:21 M
107 114 PIN Maxime SE 44 01:57:21 M
108 38 PICCINI Alexandre SE 45 01:57:54 M
109 127 CARAYON Olivier SE 46 01:57:54 M
110 29 CIDALISE-MONTAISE Franck-Olivier V1 40 01:57:56 TCHIMBE RAID M
111 253 CHAUVANCY Raphaël SE 47 01:57:59 M
112 121 HAENTJENS Marine SE 3 01:58:14 AIGLON F
113 143 LASSOURCE Sébastien SE 48 01:59:13 CLUB MANIKOU RAID MARTEAU M
114 41 LANSKIN Natacha V1 4 01:59:14 MANIKOU F
115 75 BRISARD Pascal V1 41 01:59:21 MANIKOU M
116 112 BOST Laurent SE 49 01:59:22 M
117 197 BIENVENU Benoit SE 50 01:59:25 M
118 150 GRAND Fabrice V1 42 01:59:29 M
119 102 AUGUSTE-CHARLERY Audrey SE 51 01:59:35 M
120 162 TAYE Joseph V1 43 01:59:44 M
121 52 GUSTO Philippe V1 44 01:59:56 TCH RAID /BAROUDEURS M
122 148 MAYAUD Sylvain V2 15 02:00:25 M
123 180 MONVILLE-LETU Manuel V1 45 02:00:37 TCH RAID/ASRFO972 M
124 230 ORLANDINI Philippe SE 52 02:00:58 M
125 242 BOUVRY Isabelle V1 5 02:01:18 MANIKOU F
126 21 PELTRIAUX Philippe V2 16 02:01:21 M
127 98 HILLION Patrick V2 17 02:01:59 TCHIMBE RAID M
128 56 MARIE-NELLY Christian V2 18 02:02:20 M
129 185 PAILLETTE Jacques SE 53 02:02:27 M
130 157 CAGE Jocelyn V2 19 02:02:34 M
131 113 BELAY Marie-Christine SE 4 02:02:36 F
132 55 JEAN-JOSEPH Stephane SE 54 02:02:39 M
133 218 BARAS Anthony SE 55 02:03:24 M
134 229 NELTA Emile V2 20 02:03:36 FRMP M
135 144 RETORY Denis V2 21 02:03:57 M
136 54 HAERTELMEYER Pascale V1 6 02:06:01 F
137 32 ERICHER Charles-Henry V1 46 02:06:40 M
138 184 GROS Jean-Michel SE 56 02:06:41 MADININA BIKERS M
139 208 LUCARELLI Michael SE 57 02:06:46 M
140 16 POILVE Marie-Pierre V2 2 02:08:01 F
141 33 ERICHER CAMPO Johanna SE 5 02:08:21 F
142 140 GITTON Gerard V2 22 02:08:39 MANIKOU M
143 206 CASATI Patrick V2 23 02:08:40 MANIKOU M
144 165 JANVIER Roger V2 24 02:08:50 TCHIMBE RAID M
145 31 VANSEVEREN Fréderic V1 47 02:09:24 M
146 146 HELENE Josiane V2 3 02:10:45 F
147 171 JULIUS Teddy SE 58 02:10:51 TEAMRAIDMARTEAU M
148 248 GARNIER Guillaume SE 59 02:10:51 M
149 145 KIBIR Germain V2 25 02:11:00 M
150 179 LEGRIGEOIS Claudette V2 4 02:11:03 TCHIMBE RAID F
151 43 LECHEVALLIER Florent SE 60 02:11:43 M
152 236 LECONTE Isabelle V1 7 02:11:52 TCHIMBE RAID F
153 240 VIGILANT Leon V1 48 02:11:53 LES BAROUDEURS M
154 196 BREHINIER Sandra SE 6 02:12:03 MANIKOU F
155 215 LIND Sébastien SE 61 02:12:04 CLUB MANIKOU M
156 20 CURFS Hubert V3 3 02:12:06 M
157 204 BALLAND Marc V2 26 02:12:41 TCHIMBE RAID M
158 233 SYMPHOR Christel SE 7 02:12:41 F
159 40 SEBTI Sabrina SE 8 02:15:10 F
160 219 BOCLE Marc V1 49 02:15:55 SAM HORIZON M
161 61 GUENGANT Heathcliff SE 62 02:15:56 JOGGING CLUB DE SAINT HILAIRE M
162 212 LAMOTTE Guillaume SE 63 02:16:14 M
163 103 ZOZIME Jean-Paul V1 50 02:16:34 M
164 64 LOUIS-MARIE Marc V1 51 02:16:37 TCHIMBE RAID M
165 247 CLAUSS Didier V2 27 02:16:55 M
166 85 PIGET Philippe V3 4 02:17:47 AMCF M
167 111 COICAUD Hervé V2 28 02:18:57 M
168 134 DELIN Jean-Claude V3 5 02:19:56 M
169 130 BELROSE Gervais V2 29 02:20:02 M
170 73 NORESKAL Joannes SE 64 02:20:04 M
171 95 LANSADE Alexandre SE 65 02:21:03 M
172 96 ZOZIME Marie-Nelly V1 8 02:21:03 F
173 241 ABSALON Cora (Maryvonne) V3 1 02:23:19 LES BAROUDEURS F
174 34 FONTAINE Frantz V2 30 02:24:33 TCHIMBE RAID M
175 91 QUINTY David SE 66 02:24:52 M
176 133 FILOPON Laure V1 9 02:25:22 TCHIMBE RAID F
177 65 HILDERAL Olivier V1 52 02:25:53 TCHIMBE RAID M
178 27 LOUISY Loic SE 67 02:26:07 AMCF M
179 205 SALOMON Nicolas V2 31 02:26:13 TCHIMBE RAID M
180 156 GOUSMAN Chrystel V2 5 02:26:16 F
181 732 DUMONT Martine V3 2 02:26:42 MANIKOU F
182 124 THALMENSY Luc V1 53 02:27:40 M
183 246 MARIE-ROSE Estelle SE 9 02:27:41 F
184 44 GARNIER Celine SE 10 02:28:10 F
185 45 MAUJEAN Anaďs SE 11 02:28:10 F
186 129 VARISOT Jessica V1 10 02:28:24 F
187 226 KABILE Annie V2 6 02:28:58 TCH RAID / SAM HORIZON F
188 257 JENASTE Sandra SE 12 02:29:01 F
189 25 TURPIN Stephane V2 32 02:29:01 M
190 222 COLONNETTE FILIN Clarisse SE 13 02:30:12 F
191 118 COUTE Marie-José V2 7 02:30:41 MANIKOU F
192 79 MARCHAND Mathias V1 54 02:31:20 M
193 201 DECLERCQ Patricia V3 3 02:31:39 F
194 228 LUDOSKY Michelle V2 8 02:32:02 FRMP F
195 60 BRUN Nicolas V1 55 02:32:33 TCHIMBE RAID M
196 30 CIDALISE-MONTAISE Sandra V1 11 02:34:50 CLUB COLONIAL F
197 139 DEYHERABEHERE Stephane V2 9 02:36:57 TCHIMBE RAID F
198 251 ADELAIDE Daniel V3 6 02:38:43 M
199 51 MICHEL Max V3 7 02:38:43 AMCF M
200 66 BAZILLIO Pascal V1 56 02:39:09 TCHIMBE RAID M
201 192 GOSSE Valerie V1 12 02:40:33 TCHIMBE RAID F
202 107 TORRE Richard V2 33 02:41:21 AMCF M
203 231 PALMIER Rosalyn SE 68 02:41:38 TCHIMBE RAID / AMCF M
204 14 LEAUSTIC Ronan V1 57 02:41:51 M
205 244 NAUDIN Dominique V3 4 02:43:14 MANIKOU F
206 104 CORTIER Nicolas SE 69 02:44:14 M
207 199 JACOBIERE Henri V3 8 02:46:08 TCHIMBE RAID M
208 94 PIGNOL Jerome SE 70 02:46:20 TCHIMBE RAID M
209 70 RIBAC Jocelyne V1 13 02:51:24 CLUB MANIKOU F
210 194 FONTEAU Fabienne SE 14 02:54:41 F
211 191 LAIGLE Rosita SE 15 02:54:41 TCHIMBE RAID F
212 190 VOLANGER Roberto SE 71 02:54:43 M
213 252 TANDAVARAYEN Emmanuel V3 9 02:55:08 M
214 207 LOUKA Marc-Julien V1 58 02:55:36 SAM HORIZON 2000 M
215 217 CINNA Miereille V1 14 02:57:06 SAM HORIZON 2000 F
216 173 MONTANÉ Clémentine SE 16 02:59:56 TCHIMBE RAID F
217 87 GUANEL Jimmy SE 72 03:00:14 M
218 188 MARIE-NELY Hélčne V2 10 03:04:17 MANIKOU F
219 78 LATTE Dominique SE 17 03:06:54 F
220 136 MARIE-SAINTE David V1 59 03:06:55 M
221 214 TANDAVARAYEN Viviane V3 5 03:08:12 F
222 83 LOUIS Raphael V1 60 03:09:05 M
223 84 CASTEL Sylvie V2 11 03:37:59 F